ラロトンガ の空港の天気 - METARとTAF

ラロトンガ国際空港 ( NCRG / RAR ) - クック諸島 アバルア (ラロトンガ島)
飛行場実況気象(Metar)
観測時間07/28 16:00 CKT (07/29 02:00 UTC)
風向・風速南 3m/s
視程4300m
天気現象強い雨 もや
全天の4割程度の雲 雲底高度 1040m
全天の8割程度の雲 雲底高度 1370m
気温19℃
湿度100%
気圧1017hPa
METARNCRG 290200Z AUTO 19005KT 150V240 4300 +RA BR SCT034/// BKN045/// 19/19 Q1017
過去の天気等 Google飛行場航空写真 Wunderground天気予報

過去48時間のMETAR

飛行場予報(TAF)
発表時間: 7/28 13:12 CKT (7/28 23:12 UTC)
予報対象時間: 28日14時 CKT ~ 29日14時 CKT
風向・風速東 3m/s
視程10km以上
天気現象弱いしゅう雨
少しの雲 雲底高度 850m
全天の8割程度の雲 雲底高度 1830m
全天を覆う雲 雲底高度 3050m
28日14時 CKT ~ 29日2時 CKT に 確率 40% で一時的に
視程5000m
天気現象しゅう雨
全天の8割程度の雲 雲底高度 460m
全天の8割程度の雲 雲底高度 1220m
TAF NCRG 282312Z 2900/2924 09006KT 9999 -SHRA FEW028 BKN060 OVC100
PROB40 TEMPO 2900/2912 5000 SHRA BKN015 BKN040